Terminal Aerodrome Forecast
Issued by NWS

Home | Current Version | Previous Version | Text Only | Print | Product List | Glossary On
Versions: 1 2 3 4 5 6 7 8 9 10 11 12 13 14 15 16
000
FTUS41 KPBZ 261741 AAA
TAFLBE
TAF AMD
KLBE 261741Z 2618/2718 21010G15KT P6SM -SHRA VCTS BKN045CB
     FM262000 28012G21KT 6SM -SHRA OVC040
     FM262100 27011G19KT 3SM -SHRA OVC020
     FM270000 28008KT P6SM VCSH OVC015
     FM270400 26006KT P6SM BKN070=

USA.gov is the U.S. government's official web portal to all federal, state and local government web resources and services.